Time;durP1;ratioP1;P1;durP2;ratioP2;P2;SDS_P1;SDS_P2;PMS_P1;PMS_P2;Temp;Humidity;BMP_temperature;BMP_pressure;BME280_temperature;BME280_humidity;BME280_pressure;Samples;Min_cycle;Max_cycle;Signal;HPM_P1;HPM_P2
2021/12/16 00:01:48;;;;;;;0.45;0.45;;;;;;;6.06;100.00;102357.09;5011173;28;20214;-81
2021/12/16 00:07:18;;;;;;;0.08;0.08;;;;;;;6.06;100.00;102359.72;4998086;28;20208;-81
2021/12/16 00:09:55;;;;;;;0.00;0.00;;;;;;;6.04;100.00;102362.28;4989371;28;20204;-80
2021/12/16 00:35:07;;;;;;;0.10;0.10;;;6.30;99.90;;;6.04;100.00;102371.88;4989841;28;20224;-78
2021/12/16 00:37:35;;;;;;;0.08;0.08;;;;;;;6.03;100.00;102360.47;4989609;28;20205;-78
2021/12/16 00:40:07;;;;;;;0.10;0.10;;;6.30;99.90;;;6.03;100.00;102359.56;4949113;28;20259;-78
2021/12/16 00:56:13;;;;;;;0.10;0.10;;;6.20;99.90;;;5.97;100.00;102362.72;4978437;28;20235;-78
2021/12/16 00:58:51;;;;;;;0.00;0.00;;;6.20;99.90;;;5.96;100.00;102358.31;4977942;28;20214;-78
2021/12/16 01:46:07;;;;;;;0.10;0.10;;;6.20;99.90;;;6.03;100.00;102386.72;4917556;28;20570;-79
2021/12/16 01:49:11;;;;;;;0.10;0.10;;;6.40;99.90;;;6.01;100.00;102384.81;4972087;28;20204;-78
2021/12/16 01:57:17;;;;;;;0.10;0.10;;;6.20;99.90;;;5.98;100.00;102392.53;4997622;28;20226;-79
2021/12/16 01:59:56;;;;;;;0.10;0.10;;;6.40;99.90;;;5.98;100.00;102398.69;4976826;28;20220;-79
2021/12/16 02:02:40;;;;;;;0.10;0.10;;;6.20;99.90;;;5.96;100.00;102396.78;4961204;28;20225;-79
2021/12/16 02:05:40;;;;;;;0.10;0.10;;;5.60;99.90;;;5.95;100.00;102394.97;4988313;28;20228;-78
2021/12/16 02:08:24;;;;;;;0.00;0.00;;;6.10;99.90;;;5.92;100.00;102394.78;4989329;28;20212;-79
2021/12/16 02:11:22;;;;;;;0.00;0.00;;;5.90;99.90;;;5.91;100.00;102391.25;4985687;28;20204;-80
2021/12/16 02:36:54;;;;;;;0.00;0.00;;;6.00;99.90;;;5.82;100.00;102372.31;4972434;28;20230;-78
2021/12/16 02:39:09;;;;;;;0.47;0.47;;;6.00;99.90;;;5.79;100.00;102377.38;4964680;28;20215;-78
2021/12/16 02:41:41;;;;;;;0.10;0.10;;;6.00;99.90;;;5.80;100.00;102373.94;4977084;28;20242;-79
2021/12/16 02:49:35;;;;;;;0.20;0.20;;;;;;;5.77;100.00;102371.13;4994696;28;20215;-78
2021/12/16 02:52:04;;;;;;;0.10;0.10;;;6.10;99.90;;;5.76;100.00;102375.47;4992901;28;20204;-78
2021/12/16 02:54:32;;;;;;;0.00;0.00;;;6.00;99.90;;;5.76;100.00;102377.19;4975884;28;20254;-78
2021/12/16 02:57:00;;;;;;;0.00;0.00;;;6.00;99.90;;;5.75;100.00;102373.66;4976088;28;20207;-79
2021/12/16 02:59:30;;;;;;;0.00;0.00;;;;;;;5.75;100.00;102368.41;4977496;28;20216;-79
2021/12/16 03:02:07;;;;;;;0.00;0.00;;;5.90;99.90;;;5.73;100.00;102367.41;4969523;28;20205;-79
2021/12/16 03:04:41;;;;;;;0.10;0.10;;;5.90;99.90;;;5.74;100.00;102360.44;4976653;28;20239;-79
2021/12/16 03:07:12;;;;;;;0.10;0.10;;;5.90;99.90;;;5.75;100.00;102362.25;4967006;28;20551;-80
2021/12/16 03:15:09;;;;;;;0.10;0.10;;;;;;;5.72;100.00;102367.31;4978083;28;20228;-79
2021/12/16 03:20:42;;;;;;;0.10;0.10;;;;;;;5.72;100.00;102373.47;4965243;28;20227;-79
2021/12/16 03:37:18;;;;;;;0.10;0.10;;;5.90;99.90;;;5.67;100.00;102380.19;4982205;28;20216;-78
2021/12/16 03:40:08;;;;;;;0.10;0.10;;;5.90;99.90;;;5.66;100.00;102380.09;4982611;28;20232;-78
2021/12/16 03:42:57;;;;;;;0.00;0.00;;;;;;;5.65;100.00;102376.56;4993507;28;20201;-79
2021/12/16 03:48:58;;;;;;;0.10;0.10;;;5.90;99.90;;;5.67;100.00;102389.78;5002413;28;20200;-79
2021/12/16 03:51:42;;;;;;;0.10;0.10;;;;;;;5.67;100.00;102390.69;5009322;28;20204;-78
2021/12/16 03:54:22;;;;;;;0.10;0.10;;;5.90;99.90;;;5.68;100.00;102387.25;4965512;28;20231;-79
2021/12/16 03:56:56;;;;;;;0.03;0.03;;;5.90;99.90;;;5.68;100.00;102381.09;4985693;28;20224;-78
2021/12/16 03:59:31;;;;;;;0.05;0.05;;;5.90;99.90;;;5.67;100.00;102388.06;4987352;28;20216;-79
2021/12/16 04:02:20;;;;;;;0.10;0.10;;;5.90;99.90;;;5.66;100.00;102391.50;4977898;28;20224;-78
2021/12/16 04:04:51;;;;;;;0.10;0.10;;;;;;;5.67;100.00;102395.03;4979186;28;20215;-78
2021/12/16 04:07:25;;;;;;;0.00;0.00;;;5.90;99.90;;;5.66;100.00;102390.59;4962451;28;20211;-78
2021/12/16 04:10:22;;;;;;;0.10;0.10;;;5.90;99.90;;;5.64;100.00;102400.09;4985101;28;21729;-80
2021/12/16 04:12:52;;;;;;;0.10;0.10;;;;;;;5.65;100.00;102402.81;4958842;28;20204;-79
2021/12/16 04:15:20;;;;;;;0.00;0.00;;;;;;;5.65;100.00;102396.66;4989951;28;20224;-78
2021/12/16 04:17:52;;;;;;;0.00;0.00;;;;;;;5.65;100.00;102400.19;4978941;28;20231;-78
2021/12/16 04:20:20;;;;;;;0.10;0.10;;;;;;;5.65;100.00;102402.81;4987966;28;20235;-79
2021/12/16 04:22:51;;;;;;;0.03;0.03;;;5.90;99.90;;;5.63;100.00;102391.31;4958908;28;20200;-79
2021/12/16 04:25:43;;;;;;;0.10;0.10;;;5.90;99.90;;;5.63;100.00;102396.56;4959342;28;20229;-79
2021/12/16 04:28:18;;;;;;;0.10;0.10;;;5.90;99.90;;;5.60;100.00;102393.75;4953470;28;20212;-78
2021/12/16 04:30:48;;;;;;;0.03;0.03;;;;;;;5.59;100.00;102399.81;4988560;28;20206;-78
2021/12/16 04:33:17;;;;;;;0.10;0.10;;;;;;;5.58;100.00;102389.22;4981010;28;20219;-78
2021/12/16 04:35:46;;;;;;;0.10;0.10;;;;;;;5.57;100.00;102406.69;4976334;28;20732;-77
2021/12/16 04:38:15;;;;;;;0.03;0.03;;;5.80;99.90;;;5.57;100.00;102406.69;4993748;28;20208;-78
2021/12/16 04:40:46;;;;;;;0.00;0.00;;;;;;;5.55;100.00;102397.81;4977947;28;20224;-78
2021/12/16 04:43:21;;;;;;;0.00;0.00;;;;;;;5.56;100.00;102406.59;4977905;28;20224;-79
2021/12/16 04:45:59;;;;;;;0.10;0.10;;;5.80;99.90;;;5.54;100.00;102413.47;4978645;28;20223;-78
2021/12/16 04:48:29;;;;;;;0.10;0.10;;;;;;;5.55;100.00;102417.91;4961926;28;20212;-78
2021/12/16 04:50:57;;;;;;;0.10;0.10;;;;;;;5.54;100.00;102414.38;4963389;28;20202;-78
2021/12/16 04:53:26;;;;;;;0.00;0.00;;;;;;;5.56;100.00;102419.72;4993828;28;20219;-78
2021/12/16 04:55:55;;;;;;;0.10;0.10;;;5.80;99.90;;;5.55;100.00;102416.19;4991465;28;20706;-78
2021/12/16 04:58:26;;;;;;;0.10;0.10;;;5.80;99.90;;;5.56;100.00;102423.25;4962320;28;20207;-78
2021/12/16 05:00:54;;;;;;;0.10;0.10;;;5.80;99.90;;;5.56;100.00;102425.88;4974159;28;20223;-78
2021/12/16 05:03:30;;;;;;;0.00;0.00;;;5.80;99.90;;;5.56;100.00;102428.50;4984906;28;20211;-78
2021/12/16 05:05:59;;;;;;;0.00;0.00;;;;;;;5.56;100.00;102422.34;4975552;28;20228;-78
2021/12/16 05:08:28;;;;;;;0.10;0.10;;;;;;;5.55;100.00;102425.78;4969326;28;20655;-81
2021/12/16 05:11:06;;;;;;;0.75;0.75;;;5.80;99.90;;;5.55;100.00;102425.78;4987149;28;20298;-78
2021/12/16 05:13:42;;;;;;;0.00;0.00;;;5.80;99.90;;;5.55;100.00;102416.19;4989515;28;20208;-78
2021/12/16 05:16:12;;;;;;;0.08;0.08;;;5.80;99.90;;;5.53;100.00;102424.78;4977259;28;20231;-78
2021/12/16 05:18:45;;;;;;;0.00;0.00;;;5.80;99.90;;;5.51;100.00;102424.69;4971385;28;20196;-78
2021/12/16 05:24:25;;;;;;;0.10;0.10;;;5.70;99.90;;;5.50;100.00;102427.22;4996528;28;20228;-79
2021/12/16 05:27:07;;;;;;;0.10;0.10;;;5.70;99.90;;;5.47;100.00;102422.69;4978068;28;20204;-78
2021/12/16 05:29:37;;;;;;;0.00;0.00;;;;;;;5.46;100.00;102423.50;4963960;28;20207;-78
2021/12/16 05:32:06;;;;;;;0.00;0.00;;;;;;;5.46;100.00;102432.28;4976775;28;20669;-79
2021/12/16 05:34:34;;;;;;;0.00;0.00;;;;;;;5.46;100.00;102431.38;4991612;28;20243;-78
2021/12/16 05:37:05;;;;;;;0.10;0.10;;;5.70;99.90;;;5.45;100.00;102440.97;4975096;28;20239;-79
2021/12/16 05:39:36;;;;;;;0.00;0.00;;;;;;;5.46;100.00;102442.78;5003750;28;20200;-78
2021/12/16 05:42:27;;;;;;;0.00;0.00;;;;;;;5.46;100.00;102442.78;4965653;28;20231;-80
2021/12/16 05:44:56;;;;;;;0.00;0.00;;;;;;;5.46;100.00;102442.78;4979707;28;20227;-79
2021/12/16 05:47:24;;;;;;;0.10;0.10;;;;;;;5.46;100.00;102448.03;4976700;28;20207;-79
2021/12/16 05:49:53;;;;;;;0.00;0.00;;;;;;;5.45;100.00;102446.22;5005722;28;20204;-78
2021/12/16 05:52:21;;;;;;;0.10;0.10;;;;;;;5.44;100.00;102438.25;4982220;28;20568;-77
2021/12/16 05:54:49;;;;;;;0.10;0.10;;;5.60;99.90;;;5.43;100.00;102452.19;4961177;28;20236;-76
2021/12/16 05:57:23;;;;;;;0.10;0.10;;;;;;;5.43;100.00;102457.44;4979010;28;20212;-75
2021/12/16 06:00:01;;;;;;;0.10;0.10;;;5.70;99.90;;;5.44;100.00;102462.78;4963015;28;20237;-77
2021/12/16 06:02:30;;;;;;;0.10;0.10;;;5.70;99.90;;;5.44;100.00;102465.41;5008209;28;20223;-76
2021/12/16 06:04:59;;;;;;;0.00;0.00;;;;;;;5.44;100.00;102461.88;4958485;28;20224;-76
2021/12/16 06:07:28;;;;;;;0.10;0.10;;;5.70;99.90;;;5.43;100.00;102455.72;4982180;28;20216;-76
2021/12/16 06:09:56;;;;;;;0.10;0.10;;;;;;;5.41;100.00;102467.84;4960131;28;20216;-76
2021/12/16 06:12:26;;;;;;;0.10;0.10;;;;;;;5.40;100.00;102463.41;4975738;28;20204;-76
2021/12/16 06:15:16;;;;;;;0.10;0.10;;;;;;;5.40;100.00;102473.88;4957321;28;20232;-77
2021/12/16 06:28:35;;;;;;;0.10;0.10;;;5.70;99.90;;;5.42;100.00;102476.59;4994653;28;20204;-78
2021/12/16 06:31:06;;;;;;;0.10;0.10;;;;;;;5.40;100.00;102476.50;5002691;28;20205;-78
2021/12/16 06:33:34;;;;;;;0.10;0.10;;;;;;;5.40;100.00;102478.22;5005488;28;20216;-76
2021/12/16 06:36:02;;;;;;;0.10;0.10;;;;;;;5.40;100.00;102462.47;4975770;28;20239;-76
2021/12/16 06:38:31;;;;;;;0.10;0.10;;;;;;;5.38;100.00;102475.50;4975863;28;20241;-76
2021/12/16 06:41:19;;;;;;;0.32;0.32;;;5.60;99.90;;;5.39;100.00;102463.31;4977066;28;20211;-77
2021/12/16 06:43:51;;;;;;;0.08;0.08;;;5.60;99.90;;;5.39;100.00;102479.94;4960455;28;20211;-76
2021/12/16 06:46:21;;;;;;;0.13;0.13;;;;;;;5.39;100.00;102477.31;4983425;28;20231;-76
2021/12/16 06:48:56;;;;;;;0.10;0.10;;;;;;;5.38;100.00;102479.84;4960534;28;20204;-76
2021/12/16 06:51:37;;;;;;;0.10;0.10;;;;;;;5.37;100.00;102476.31;4978479;28;20215;-76
2021/12/16 06:54:13;;;;;;;0.55;0.55;;;5.60;99.90;;;5.38;100.00;102480.75;4994469;28;20231;-76
2021/12/16 06:57:02;;;;;;;0.10;0.10;;;5.70;99.90;;;5.37;100.00;102488.53;4964331;28;20212;-76
2021/12/16 06:59:38;;;;;;;0.00;0.00;;;;;;;5.36;100.00;102492.88;4993084;28;20215;-76
2021/12/16 07:05:09;;;;;;;0.10;0.10;;;5.80;99.90;;;5.37;100.00;102488.53;4982312;28;20219;-76
2021/12/16 07:07:38;;;;;;;0.10;0.10;;;;;;;5.36;100.00;102494.59;4982344;28;20199;-77
2021/12/16 07:10:10;;;;;;;0.28;0.28;;;5.70;99.90;;;5.36;100.00;102491.97;4950072;28;20204;-76
2021/12/16 07:12:39;;;;;;;0.00;0.00;;;5.60;99.90;;;5.36;100.00;102497.22;4961645;28;20200;-76
2021/12/16 07:15:12;;;;;;;0.00;0.00;;;5.60;99.90;;;5.35;100.00;102506.81;5001008;28;20713;-76
2021/12/16 07:17:41;;;;;;;0.10;0.10;;;5.60;99.90;;;5.36;100.00;102506.00;4979897;28;20582;-77
2021/12/16 07:20:15;;;;;;;0.00;0.00;;;5.60;99.90;;;5.35;100.00;102506.81;4992139;28;20209;-77
2021/12/16 07:22:43;;;;;;;0.10;0.10;;;;;;;5.36;100.00;102518.22;4978738;28;20717;-77
2021/12/16 07:25:12;;;;;;;0.10;0.10;;;;;;;5.34;100.00;102517.19;4979758;28;20311;-77
2021/12/16 07:27:40;;;;;;;0.05;0.05;;;;;;;5.35;100.00;102529.50;4965636;28;20213;-76
2021/12/16 07:30:14;;;;;;;0.10;0.10;;;5.60;99.90;;;5.36;100.00;102526.09;4979686;28;20203;-77
2021/12/16 07:32:42;;;;;;;0.10;0.10;;;;;;;5.37;100.00;102541.91;4963781;28;20210;-77
2021/12/16 07:35:16;;;;;;;0.10;0.10;;;5.60;99.90;;;5.37;100.00;102551.50;4979569;28;20227;-78
2021/12/16 07:37:45;;;;;;;0.10;0.10;;;5.70;99.90;;;5.37;100.00;102543.63;4943514;28;20215;-78
2021/12/16 07:40:17;;;;;;;0.05;0.05;;;5.60;99.90;;;5.37;100.00;102547.16;5007839;28;20212;-78
2021/12/16 07:43:10;;;;;;;0.00;0.00;;;5.70;99.90;;;5.38;100.00;102548.06;4948269;28;20592;-78
2021/12/16 07:45:41;;;;;;;0.10;0.10;;;5.70;99.90;;;5.38;100.00;102551.59;4966631;28;20239;-78
2021/12/16 07:48:16;;;;;;;0.17;0.17;;;5.70;99.90;;;5.40;100.00;102556.94;4996108;28;20208;-78
2021/12/16 07:50:48;;;;;;;0.10;0.10;;;5.70;99.90;;;5.40;100.00;102556.94;4971442;28;20211;-78
2021/12/16 07:53:16;;;;;;;0.10;0.10;;;;;;;5.40;100.00;102559.56;4963868;28;20219;-78
2021/12/16 07:55:47;;;;;;;0.10;0.10;;;;;;;5.39;100.00;102563.00;4984718;28;20627;-77
2021/12/16 07:58:15;;;;;;;0.10;0.10;;;5.70;99.90;;;5.42;100.00;102579.84;4979479;28;20208;-77
2021/12/16 08:00:44;;;;;;;0.00;0.00;;;;;;;5.42;100.00;102581.56;5010474;28;20590;-77
2021/12/16 08:03:13;;;;;;;0.00;0.00;;;5.70;99.90;;;5.42;100.00;102581.56;4963196;28;20236;-77
2021/12/16 08:05:50;;;;;;;0.10;0.10;;;5.70;99.90;;;5.44;100.00;102583.50;5006553;28;20216;-78
2021/12/16 08:08:19;;;;;;;0.10;0.10;;;;;;;5.44;100.00;102586.09;4985278;28;20251;-77
2021/12/16 08:10:47;;;;;;;0.10;0.10;;;;;;;5.44;100.00;102580.88;4954891;28;20199;-78
2021/12/16 08:13:16;;;;;;;0.10;0.10;;;5.60;99.90;;;5.45;100.00;102587.94;4997157;28;20192;-77
2021/12/16 08:15:44;;;;;;;0.10;0.10;;;;;;;5.45;100.00;102593.19;4984751;28;20235;-77
2021/12/16 08:18:13;;;;;;;0.10;0.10;;;;;;;5.47;100.00;102604.69;4970905;28;20215;-77
2021/12/16 08:20:41;;;;;;;0.10;0.10;;;;;;;5.49;100.00;102601.25;4965918;28;20196;-78
2021/12/16 08:23:10;;;;;;;0.30;0.30;;;5.80;99.90;;;5.49;100.00;102604.78;4976753;28;20234;-77
2021/12/16 08:25:38;;;;;;;0.10;0.10;;;5.80;99.90;;;5.50;100.00;102603.06;4970056;28;20224;-77
2021/12/16 08:28:07;;;;;;;0.05;0.05;;;5.70;99.90;;;5.50;100.00;102603.97;4957565;28;20204;-77
2021/12/16 08:30:44;;;;;;;0.00;0.00;;;5.80;99.90;;;5.53;100.00;102611.13;4967869;28;20216;-77
2021/12/16 08:33:13;;;;;;;0.10;0.10;;;;;;;5.55;100.00;102618.28;4978131;28;20208;-77
2021/12/16 08:35:48;;;;;;;0.10;0.10;;;5.80;99.90;;;5.56;100.00;102611.31;4960496;28;20236;-78
2021/12/16 08:38:26;;;;;;;0.00;0.00;;;5.90;99.90;;;5.58;100.00;102612.34;4973029;28;20230;-77
2021/12/16 08:41:08;;;;;;;0.00;0.00;;;5.90;99.90;;;5.61;100.00;102625.66;5000225;28;20203;-78
2021/12/16 08:43:40;;;;;;;0.20;0.20;;;5.90;99.90;;;5.62;100.00;102631.00;4948543;28;20223;-78
2021/12/16 08:46:13;;;;;;;0.10;0.10;;;5.90;99.90;;;5.65;100.00;102628.56;4959017;28;20228;-77
2021/12/16 08:48:45;;;;;;;0.10;0.10;;;5.90;99.90;;;5.67;100.00;102634.81;4992269;28;20200;-77
2021/12/16 08:51:21;;;;;;;1.98;1.88;;;5.90;99.90;;;5.69;100.00;102633.22;4989686;28;20196;-77
2021/12/16 08:53:53;;;;;;;0.10;0.10;;;6.00;99.90;;;5.71;100.00;102623.72;5005195;28;20211;-78
2021/12/16 08:56:25;;;;;;;0.10;0.10;;;6.00;99.90;;;5.73;100.00;102621.19;4993828;28;20219;-77
2021/12/16 08:58:59;;;;;;;0.10;0.10;;;5.90;99.90;;;5.74;100.00;102628.25;4996490;28;20211;-77
2021/12/16 09:01:33;;;;;;;0.10;0.10;;;6.00;99.90;;;5.76;100.00;102629.25;4980209;28;20207;-77
2021/12/16 09:04:03;;;;;;;0.08;0.08;;;6.00;99.90;;;5.80;100.00;102639.13;5001721;28;20231;-78
2021/12/16 09:06:32;;;;;;;0.00;0.00;;;6.10;99.90;;;5.82;100.00;102642.75;4975929;28;20267;-77
2021/12/16 09:09:00;;;;;;;0.10;0.10;;;;;;;5.84;100.00;102637.63;4997984;28;20196;-77
2021/12/16 09:11:32;;;;;;;0.10;0.10;;;6.10;99.90;;;5.88;100.00;102639.63;4943901;28;20570;-77
2021/12/16 09:14:06;;;;;;;0.00;0.00;;;6.20;99.90;;;5.91;100.00;102645.09;4954589;28;20201;-78
2021/12/16 09:16:35;;;;;;;0.00;0.00;;;;;;;5.93;100.00;102660.16;4990077;28;20583;-77
2021/12/16 09:19:06;;;;;;;0.17;0.17;;;6.20;99.90;;;5.96;100.00;102651.53;4959094;28;20223;-78
2021/12/16 09:21:39;;;;;;;0.08;0.08;;;6.20;99.90;;;5.98;100.00;102658.72;4975722;28;20227;-77
2021/12/16 09:24:09;;;;;;;4.78;1.08;;;;;;;6.01;100.00;102661.53;5007664;28;20231;-78
2021/12/16 09:26:37;;;;;;;0.08;0.08;;;;;;;6.06;100.00;102670.59;4978821;28;20924;-77
2021/12/16 09:29:06;;;;;;;0.05;0.05;;;;;;;6.10;100.00;102674.34;4967255;28;20216;-78
2021/12/16 09:31:34;;;;;;;0.10;0.10;;;6.40;99.90;;;6.15;100.00;102674.63;4985666;28;20208;-77
2021/12/16 09:34:08;;;;;;;0.10;0.10;;;6.50;99.90;;;6.18;100.00;102673.09;4978988;28;20204;-77
2021/12/16 09:36:40;;;;;;;0.00;0.00;;;6.50;99.90;;;6.22;100.00;102671.56;4989181;28;20204;-77
2021/12/16 09:39:13;;;;;;;0.10;0.10;;;6.50;99.90;;;6.28;100.00;102687.72;5006388;28;20223;-77
2021/12/16 09:41:46;;;;;;;0.00;0.00;;;6.60;99.90;;;6.30;100.00;102679.09;5001788;28;20208;-77
2021/12/16 09:44:16;;;;;;;0.10;0.10;;;6.60;99.90;;;6.33;100.00;102687.19;4989093;28;20232;-77
2021/12/16 09:46:48;;;;;;;0.10;0.10;;;6.60;99.90;;;6.35;100.00;102675.03;4993025;28;20211;-77
2021/12/16 09:49:19;;;;;;;0.00;0.00;;;6.70;99.90;;;6.41;100.00;102679.78;4980158;28;20212;-77
2021/12/16 09:51:53;;;;;;;0.10;0.10;;;6.70;99.90;;;6.42;100.00;102681.59;4970863;28;20211;-77
2021/12/16 09:54:27;;;;;;;0.03;0.03;;;6.70;99.90;;;6.48;100.00;102700.38;4993642;28;20240;-77
2021/12/16 09:56:57;;;;;;;0.03;0.03;;;6.80;99.90;;;6.48;100.00;102691.56;4974193;28;20211;-77
2021/12/16 09:59:28;;;;;;;0.10;0.10;;;6.80;99.90;;;6.56;100.00;102685.09;5005052;28;20212;-77
2021/12/16 10:01:59;;;;;;;0.00;0.00;;;6.90;99.90;;;6.58;100.00;102687.00;4965812;28;20205;-77
2021/12/16 10:04:33;;;;;;;0.43;0.43;;;6.90;99.90;;;6.54;100.00;102677.13;4992606;28;20227;-78
2021/12/16 10:07:11;;;;;;;0.10;0.10;;;6.90;99.90;;;6.64;100.00;102676.84;4976699;28;20220;-77
2021/12/16 10:09:41;;;;;;;0.10;0.10;;;7.00;99.90;;;6.69;100.00;102677.13;4980380;28;20681;-77
2021/12/16 10:12:18;;;;;;;0.10;0.10;;;7.00;99.90;;;6.74;100.00;102695.00;4981615;28;20204;-77
2021/12/16 10:17:32;;;;;;;0.10;0.10;;;7.10;99.90;;;6.82;100.00;102678.78;4982901;28;20200;-78
2021/12/16 10:20:17;;;;;;;0.10;0.10;;;7.10;99.90;;;6.85;100.00;102693.03;4974618;28;20203;-78
2021/12/16 10:22:47;;;;;;;0.10;0.10;;;7.20;99.90;;;6.93;100.00;102694.38;4999160;28;20214;-77
2021/12/16 10:25:31;;;;;;;0.10;0.10;;;7.20;99.90;;;6.95;100.00;102700.66;4952215;28;20265;-77
2021/12/16 10:28:17;;;;;;;0.03;0.03;;;7.10;99.90;;;6.95;100.00;102699.75;5011162;28;20204;-77
2021/12/16 10:31:06;;;;;;;0.00;0.00;;;7.30;99.90;;;7.00;100.00;102693.94;5005672;28;20208;-77
2021/12/16 10:34:12;;;;;;;0.08;0.08;;;7.30;99.90;;;7.03;100.00;102690.56;4990592;28;20211;-77
2021/12/16 10:36:45;;;;;;;0.75;0.75;;;7.20;99.90;;;6.98;100.00;102687.69;4994137;28;20211;-78
2021/12/16 10:39:22;;;;;;;0.20;0.20;;;7.30;99.90;;;7.06;100.00;102682.88;4980555;28;20212;-78
2021/12/16 10:41:59;;;;;;;0.10;0.10;;;7.30;99.90;;;7.09;100.00;102688.31;4992026;28;20215;-77
2021/12/16 10:44:35;;;;;;;0.65;0.65;;;7.30;99.90;;;7.16;100.00;102687.84;4965222;28;20286;-78
2021/12/16 10:47:13;;;;;;;0.00;0.00;;;7.50;99.90;;;7.27;100.00;102694.66;4952037;28;20586;-78
2021/12/16 10:49:52;;;;;;;0.00;0.00;;;7.50;99.90;;;7.28;100.00;102685.03;4990431;28;20204;-77
2021/12/16 10:52:27;;;;;;;0.00;0.00;;;7.50;99.90;;;7.23;100.00;102679.50;4972617;28;20216;-78
2021/12/16 10:54:58;;;;;;;0.00;0.00;;;7.50;99.90;;;7.21;100.00;102680.22;4994290;28;20243;-77
2021/12/16 10:57:31;;;;;;;0.20;0.20;;;7.50;99.90;;;7.30;100.00;102689.56;5009023;28;20211;-78
2021/12/16 11:00:13;;;;;;;0.10;0.10;;;7.60;99.90;;;7.41;100.00;102699.81;5006102;28;20215;-77
2021/12/16 11:02:44;;;;;;;0.10;0.10;;;7.70;99.90;;;7.46;100.00;102694.00;4960592;28;20207;-78
2021/12/16 11:05:22;;;;;;;0.10;0.10;;;7.80;99.90;;;7.57;100.00;102707.78;4991510;28;20231;-77
2021/12/16 11:07:58;;;;;;;0.08;0.08;;;7.80;99.90;;;7.52;100.00;102699.59;4980235;28;20195;-77
2021/12/16 11:10:29;;;;;;;0.00;0.00;;;;;;;7.57;100.00;102707.78;4961233;28;20208;-78
2021/12/16 11:13:10;;;;;;;0.00;0.00;;;7.70;99.90;;;7.53;100.00;102695.25;4958185;28;20204;-77
2021/12/16 11:15:46;;;;;;;0.00;0.00;;;7.70;99.90;;;7.54;100.00;102686.53;4988556;28;20729;-77
2021/12/16 11:18:16;;;;;;;0.00;0.00;;;;;;;7.57;100.00;102686.72;4965823;28;20212;-77
2021/12/16 11:21:04;;;;;;;0.10;0.10;;;7.80;99.90;;;7.64;100.00;102692.41;4963648;28;20212;-77
2021/12/16 11:23:40;;;;;;;0.10;0.10;;;7.90;99.90;;;7.73;100.00;102692.03;4984915;28;20224;-77
2021/12/16 11:26:16;;;;;;;0.00;0.00;;;8.10;99.90;;;7.99;100.00;102720.75;4962073;28;20242;-78
2021/12/16 11:28:54;;;;;;;0.95;0.95;;;8.10;99.90;;;7.93;100.00;102706.34;4999932;28;20226;-78
2021/12/16 11:31:30;;;;;;;0.30;0.30;;;8.30;99.90;;;8.15;100.00;102725.16;4985671;28;20200;-77
2021/12/16 11:34:00;;;;;;;0.00;0.00;;;;;;;8.07;100.00;102705.38;4985983;28;20199;-78
2021/12/16 11:36:40;;;;;;;0.40;0.40;;;8.50;99.90;;;8.27;100.00;102728.47;4974460;28;20219;-77
2021/12/16 11:39:22;;;;;;;0.10;0.10;;;8.50;99.90;;;8.16;100.00;102703.25;4981926;28;20226;-77
2021/12/16 11:41:59;;;;;;;0.10;0.10;;;;;;;8.21;100.00;102695.59;4986883;28;20208;-77
2021/12/16 11:44:40;;;;;;;0.10;0.10;;;8.40;99.90;;;8.11;100.00;102683.63;4941822;28;20686;-77
2021/12/16 11:47:09;;;;;;;0.00;0.00;;;;;;;8.11;100.00;102678.38;4975249;28;20201;-77
2021/12/16 11:49:45;;;;;;;0.00;0.00;;;8.40;99.90;;;8.18;100.00;102684.88;4949386;28;20211;-77
2021/12/16 11:52:18;;;;;;;0.00;0.00;;;8.40;99.90;;;8.18;100.00;102672.63;4973850;28;20216;-77
2021/12/16 11:55:06;;;;;;;0.10;0.10;;;8.40;99.90;;;8.27;100.00;102674.84;5015036;23;20245;-82
2021/12/16 11:57:39;;;;;;;0.10;0.10;;;;;;;8.39;100.00;102688.72;5015914;28;20226;-83
2021/12/16 12:00:15;;;;;;;0.10;0.10;;;8.70;99.90;;;8.57;100.00;102686.16;5010992;28;20203;-84
2021/12/16 12:02:50;;;;;;;0.10;0.10;;;8.90;99.90;;;8.68;100.00;102681.44;5019418;28;20218;-82
2021/12/16 12:05:31;;;;;;;0.00;0.00;;;8.90;99.90;;;8.70;100.00;102678.06;5015026;28;20234;-83
2021/12/16 12:08:10;;;;;;;0.10;0.10;;;9.00;99.90;;;8.78;100.00;102679.34;5022037;28;20209;-84
2021/12/16 12:11:06;;;;;;;0.00;0.00;;;8.80;99.90;;;8.89;100.00;102680.81;5043263;28;20203;-82
2021/12/16 12:13:42;;;;;;;0.10;0.10;;;9.10;99.90;;;8.97;100.00;102675.94;5022461;28;20199;-84
2021/12/16 12:16:19;;;;;;;0.00;0.00;;;9.20;99.90;;;9.10;100.00;102680.09;5035469;28;20225;-82
2021/12/16 12:19:17;;;;;;;0.20;0.20;;;9.40;99.90;;;9.19;100.00;102665.66;5026666;28;20570;-83
2021/12/16 12:21:57;;;;;;;0.00;0.00;;;9.40;99.90;;;9.26;100.00;102670.44;5013931;28;20205;-82
2021/12/16 12:24:26;;;;;;;0.00;0.00;;;;;;;9.43;100.00;102681.81;5032697;28;20225;-83
2021/12/16 12:27:17;;;;;;;0.00;0.00;;;9.70;99.90;;;9.59;100.00;102696.69;5037493;28;20213;-84
2021/12/16 12:29:59;;;;;;;0.00;0.00;;;9.90;99.90;;;9.79;100.00;102702.94;5040793;28;20199;-83
2021/12/16 12:32:39;;;;;;;0.10;0.10;;;10.00;99.90;;;9.94;100.00;102696.66;5028519;28;20221;-83
2021/12/16 12:35:21;;;;;;;0.10;0.10;;;10.20;99.90;;;10.00;100.00;102688.09;5034728;28;20218;-83
2021/12/16 12:37:55;;;;;;;0.00;0.00;;;10.20;99.90;;;9.97;100.00;102665.91;5019874;28;20728;-83
2021/12/16 12:40:29;;;;;;;0.10;0.10;;;;;;;10.04;100.00;102663.63;5031940;28;20218;-85
2021/12/16 12:42:58;;;;;;;0.08;0.08;;;;;;;10.26;100.00;102682.31;5016223;28;20201;-82
2021/12/16 12:45:35;;;;;;;0.10;0.10;;;10.40;99.90;;;10.18;100.00;102654.59;5050687;28;20229;-81
2021/12/16 12:48:11;;;;;;;0.00;0.00;;;10.40;99.90;;;10.11;100.00;102647.22;5016179;28;20208;-82
2021/12/16 12:50:43;;;;;;;0.00;0.00;;;10.10;99.90;;;10.05;100.00;102644.28;5035824;28;20209;-82
2021/12/16 12:53:16;;;;;;;0.00;0.00;;;;;;;10.20;100.00;102660.88;5045761;28;20214;-83
2021/12/16 12:55:46;;;;;;;0.00;0.00;;;10.50;99.90;;;10.61;100.00;102693.63;5021061;28;20230;-83
2021/12/16 12:58:18;;;;;;;0.10;0.10;;;10.80;99.90;;;10.79;100.00;102693.53;5050791;28;20657;-82
2021/12/16 13:00:59;;;;;;;0.00;0.00;;;11.10;99.90;;;11.00;100.00;102709.47;5041002;28;20214;-82
2021/12/16 13:03:36;;;;;;;0.00;0.00;;;11.30;99.90;;;11.15;100.00;102703.09;5027406;28;20206;-83
2021/12/16 13:06:16;;;;;;;0.00;0.00;;;11.20;99.90;;;10.96;100.00;102654.56;5030171;28;20226;-82
2021/12/16 13:08:50;;;;;;;0.03;0.03;;;11.10;99.90;;;11.04;100.00;102669.94;5006424;28;20490;-83
2021/12/16 13:11:30;;;;;;;0.10;0.10;;;11.10;99.90;;;10.85;100.00;102619.69;5025005;28;20206;-82
2021/12/16 13:14:17;;;;;;;0.00;0.00;;;10.90;99.90;;;10.77;100.00;102619.38;5045543;28;20197;-85
2021/12/16 13:31:31;;;;;;;0.40;0.40;;;11.60;99.90;;;11.63;100.00;102671.50;5036689;28;20229;-82
2021/12/16 13:34:01;;;;;;;0.10;0.10;;;;;;;11.32;100.00;102612.81;4998241;28;20206;-82
2021/12/16 13:36:49;;;;;;;0.10;0.10;;;11.30;99.90;;;11.08;100.00;102584.50;5026748;28;20233;-82
2021/12/16 13:39:29;;;;;;;0.00;0.00;;;11.10;99.90;;;11.04;100.00;102582.56;5035379;28;20206;-81
2021/12/16 13:42:07;;;;;;;0.00;0.00;;;11.30;99.90;;;11.29;100.00;102628.59;4997586;28;20664;-81
2021/12/16 13:45:03;;;;;;;0.00;0.00;;;11.40;99.90;;;11.37;100.00;102635.09;5018724;28;20217;-81
2021/12/16 14:02:30;;;;;;;0.00;0.00;;;11.00;99.90;;;10.77;100.00;102600.84;5054163;28;20201;-83
2021/12/16 14:05:26;;;;;;;0.00;0.00;;;10.70;99.90;;;10.52;100.00;102572.41;5051740;28;20229;-83
2021/12/16 14:08:02;;;;;;;0.08;0.08;;;;;;;10.40;100.00;102577.19;5021595;28;20213;-83
2021/12/16 14:10:44;;;;;;;0.10;0.10;;;10.50;99.90;;;10.32;100.00;102588.22;5041658;28;20207;-83
2021/12/16 14:14:07;;;;;;;0.00;0.00;;;10.20;99.90;;;10.15;100.00;102576.88;5042263;28;20209;-84
2021/12/16 14:25:09;;;;;;;0.10;0.10;;;10.40;99.90;;;10.03;100.00;102582.50;5052588;28;20213;-83
2021/12/16 14:40:27;;;;;;;0.10;0.10;;;10.40;99.90;;;10.41;100.00;102633.63;5054392;28;20203;-83
2021/12/16 14:51:01;;;;;;;0.00;0.00;;;10.60;99.90;;;10.20;100.00;102612.38;5044724;28;20198;-83
2021/12/16 14:53:31;;;;;;;0.00;0.00;;;;;;;10.05;100.00;102587.84;5061753;28;20217;-83